Terminal Aerodrome Forecast
Issued by NWS

Home | Current Version | Previous Version | Text Only | Print | Product List | Glossary On
Versions: 1 2 3 4 5 6 7 8 9 10 11 12 13
000
FTUS46 KLOX 171700
TAFVNY
TAF
KVNY 171732Z 1718/1818 14010KT P6SM SCT100
     FM180300 VRB03KT P6SM SCT100
     FM181300 VRB05KT P6SM BKN008
     FM181600 15007KT P6SM SCT010=

USA.gov is the U.S. government's official web portal to all federal, state and local government web resources and services.